createdAt,value
2023-04-09T00:02:08.613Z,99055.09
2023-04-09T00:04:58.529Z,99056.56
2023-04-09T00:07:48.578Z,99023.72
2023-04-09T00:10:39.745Z,99041.00
2023-04-09T00:13:28.250Z,99046.50
2023-04-09T00:16:22.648Z,99064.59
2023-04-09T00:18:57.740Z,99051.56
2023-04-09T00:21:33.737Z,99050.91
2023-04-09T00:24:18.416Z,99051.81
2023-04-09T00:26:58.263Z,99069.03
2023-04-09T00:29:46.529Z,99065.09
2023-04-09T00:32:20.802Z,99073.97
2023-04-09T00:34:59.921Z,99074.97
2023-04-09T00:37:33.782Z,99051.09
2023-04-09T00:40:23.483Z,99076.97
2023-04-09T00:43:10.547Z,99045.78
2023-04-09T00:45:44.241Z,99076.56
2023-04-09T00:48:31.042Z,99052.66
2023-04-09T00:51:13.639Z,99049.75
2023-04-09T00:53:47.410Z,99058.31
2023-04-09T00:56:29.628Z,99034.09
2023-04-09T00:58:57.080Z,99059.88
2023-04-09T01:01:29.369Z,99063.56
2023-04-09T01:04:01.609Z,99054.44
2023-04-09T01:07:02.448Z,99056.00
2023-04-09T01:09:57.796Z,99065.84
2023-04-09T01:12:50.257Z,99065.00
2023-04-09T01:15:48.934Z,99061.06
2023-04-09T01:18:54.480Z,99072.63
2023-04-09T01:21:47.974Z,99058.69
2023-04-09T01:24:50.565Z,99068.41
2023-04-09T01:27:31.495Z,99049.03
2023-04-09T01:30:17.094Z,99068.28
2023-04-09T01:33:06.464Z,99038.94
2023-04-09T01:35:56.943Z,99059.72
2023-04-09T01:38:43.186Z,99060.41
2023-04-09T01:41:25.300Z,99048.16
2023-04-09T01:44:23.449Z,99039.47
2023-04-09T01:46:53.557Z,99075.16
2023-04-09T01:49:27.811Z,99082.31
2023-04-09T01:52:15.164Z,99079.41
2023-04-09T01:54:45.014Z,99080.25
2023-04-09T01:57:18.630Z,99046.00
2023-04-09T02:00:05.595Z,99070.94
2023-04-09T02:03:15.571Z,99058.88
2023-04-09T02:06:09.698Z,99072.06
2023-04-09T02:08:47.283Z,99063.09
2023-04-09T02:11:21.207Z,99068.84
2023-04-09T02:13:59.086Z,99064.06
2023-04-09T02:16:40.011Z,99051.03
2023-04-09T02:19:22.798Z,99069.84
2023-04-09T02:22:06.461Z,99075.09
2023-04-09T02:24:37.781Z,99071.28
2023-04-09T02:27:07.778Z,99071.03
2023-04-09T02:29:38.660Z,99052.88
2023-04-09T02:32:30.034Z,99071.81
2023-04-09T02:35:09.611Z,99066.19
2023-04-09T02:37:50.358Z,99062.56
2023-04-09T02:40:30.589Z,99068.56
2023-04-09T02:43:13.251Z,99062.28
2023-04-09T02:45:53.268Z,99071.53
2023-04-09T02:48:33.176Z,99077.56
2023-04-09T02:51:23.571Z,99071.38
2023-04-09T02:54:23.372Z,99077.72
2023-04-09T02:57:01.298Z,99073.91
2023-04-09T02:59:35.632Z,99074.88
2023-04-09T03:02:05.828Z,99061.94
2023-04-09T03:04:38.525Z,99080.41
2023-04-09T03:07:07.811Z,99052.41
2023-04-09T03:09:44.471Z,99064.72
2023-04-09T03:12:27.074Z,99068.66
2023-04-09T03:15:12.459Z,99065.84
2023-04-09T03:17:53.375Z,99072.59
2023-04-09T03:20:41.829Z,99017.84
2023-04-09T03:23:26.735Z,99071.53
2023-04-09T03:26:16.550Z,99075.84
2023-04-09T03:29:02.165Z,99016.75
2023-04-09T03:31:40.279Z,99076.00
2023-04-09T03:34:32.084Z,99074.00
2023-04-09T03:37:02.848Z,99058.00
2023-04-09T03:39:49.161Z,99057.19
2023-04-09T03:42:26.816Z,99041.63
2023-04-09T03:45:09.917Z,99038.00
2023-04-09T03:47:57.470Z,99065.09
2023-04-09T03:50:36.176Z,99045.72
2023-04-09T03:53:19.109Z,99079.28
2023-04-09T03:55:59.251Z,99076.59
2023-04-09T03:58:42.170Z,99053.53
2023-04-09T04:01:23.952Z,99070.38
2023-04-09T04:04:04.691Z,99072.19
2023-04-09T04:06:36.272Z,99059.88
2023-04-09T04:09:13.829Z,99032.75
2023-04-09T04:11:57.904Z,99078.50
2023-04-09T04:14:48.342Z,99081.03
2023-04-09T04:17:29.781Z,99069.25
2023-04-09T04:20:18.183Z,99082.75
2023-04-09T04:22:59.793Z,99077.97
2023-04-09T04:25:47.672Z,99086.53
2023-04-09T04:28:27.529Z,99060.66
2023-04-09T04:31:00.934Z,99062.22
2023-04-09T04:33:30.146Z,99082.41
2023-04-09T04:36:22.713Z,99079.00
2023-04-09T04:39:00.385Z,99090.09
2023-04-09T04:41:28.131Z,99088.66
2023-04-09T04:44:02.952Z,99071.03
2023-04-09T04:46:38.946Z,99093.13
2023-04-09T04:49:08.752Z,99086.47
2023-04-09T04:51:43.815Z,99076.34
2023-04-09T04:54:29.839Z,99073.53
2023-04-09T04:57:20.595Z,99088.25
2023-04-09T05:00:04.923Z,99097.94
2023-04-09T05:02:48.103Z,99083.28
2023-04-09T05:05:24.410Z,99088.03
2023-04-09T05:08:01.189Z,99093.59
2023-04-09T05:10:49.602Z,99058.59
2023-04-09T05:13:26.236Z,99099.94
2023-04-09T05:15:57.792Z,99099.16
2023-04-09T05:18:34.965Z,99076.81
2023-04-09T05:21:09.187Z,99088.16
2023-04-09T05:23:36.759Z,99103.16
2023-04-09T05:26:14.908Z,99090.41
2023-04-09T05:28:49.820Z,99107.38
2023-04-09T05:31:35.814Z,99102.63
2023-04-09T05:34:10.631Z,99097.34
2023-04-09T05:36:45.383Z,99070.16
2023-04-09T05:39:23.973Z,99096.66
2023-04-09T05:42:02.988Z,99095.03
2023-04-09T05:44:46.256Z,99103.72
2023-04-09T05:47:16.651Z,99111.34
2023-04-09T05:49:52.861Z,99118.59
2023-04-09T05:52:21.846Z,99111.78
2023-04-09T05:55:06.484Z,99118.19
2023-04-09T05:57:56.185Z,99116.44
2023-04-09T06:00:43.513Z,99109.91
2023-04-09T06:03:24.272Z,99114.00
2023-04-09T06:06:09.023Z,99112.53
2023-04-09T06:08:38.587Z,99120.88
2023-04-09T06:11:29.267Z,99075.97
2023-04-09T06:14:05.077Z,99117.78
2023-04-09T06:16:42.189Z,99114.28
2023-04-09T06:19:20.485Z,99117.34
2023-04-09T06:22:12.669Z,99121.59
2023-04-09T06:24:58.072Z,99108.50
2023-04-09T06:27:40.293Z,99125.38
2023-04-09T06:30:22.724Z,99114.78
2023-04-09T06:33:07.432Z,99133.59
2023-04-09T06:35:48.104Z,99125.41
2023-04-09T06:38:32.261Z,99123.91
2023-04-09T06:41:06.242Z,99134.88
2023-04-09T06:44:07.958Z,99126.75
2023-04-09T06:46:39.298Z,99130.50
2023-04-09T06:49:31.372Z,99143.63
2023-04-09T06:52:10.461Z,99143.47
2023-04-09T06:54:57.208Z,99148.34
2023-04-09T06:57:33.317Z,99137.78
2023-04-09T07:00:14.431Z,99146.84
2023-04-09T07:02:46.788Z,99154.56
2023-04-09T07:05:34.403Z,99150.22
2023-04-09T07:08:01.688Z,99142.47
2023-04-09T07:10:30.050Z,99149.72
2023-04-09T07:13:07.216Z,99118.91
2023-04-09T07:15:53.815Z,99130.72
2023-04-09T07:18:35.842Z,99160.63
2023-04-09T07:21:03.433Z,99158.63
2023-04-09T07:23:40.720Z,99145.69
2023-04-09T07:26:23.570Z,99156.28
2023-04-09T07:29:11.233Z,99160.31
2023-04-09T07:31:57.312Z,99162.00
2023-04-09T07:34:38.850Z,99155.59
2023-04-09T07:37:10.678Z,99145.03
2023-04-09T07:39:46.985Z,99135.94
2023-04-09T07:42:17.720Z,99159.66
2023-04-09T07:44:44.638Z,99146.34
2023-04-09T07:47:22.119Z,99142.81
2023-04-09T07:49:50.170Z,99130.38
2023-04-09T07:52:20.459Z,99162.50
2023-04-09T07:55:12.934Z,99164.53
2023-04-09T07:58:00.841Z,99150.88
2023-04-09T08:00:34.851Z,99166.50
2023-04-09T08:03:22.623Z,99161.66
2023-04-09T08:06:10.360Z,99152.56
2023-04-09T08:08:45.044Z,99161.31
2023-04-09T08:11:23.732Z,99170.75
2023-04-09T08:13:57.848Z,99154.56
2023-04-09T08:16:37.480Z,99169.75
2023-04-09T08:19:24.684Z,99168.72
2023-04-09T08:22:05.202Z,99149.19
2023-04-09T08:24:50.292Z,99174.72
2023-04-09T08:27:30.525Z,99173.53
2023-04-09T08:30:00.207Z,99177.97
2023-04-09T08:32:43.860Z,99160.94
2023-04-09T08:35:20.397Z,99170.06
2023-04-09T08:37:57.072Z,99179.28
2023-04-09T08:40:34.541Z,99180.75
2023-04-09T08:43:25.111Z,99180.63
2023-04-09T08:46:18.243Z,99167.25
2023-04-09T08:49:07.782Z,99162.56
2023-04-09T08:51:54.294Z,99162.91
2023-04-09T08:54:38.019Z,99174.50
2023-04-09T08:57:23.652Z,99171.84
2023-04-09T09:00:05.758Z,99161.59
2023-04-09T09:02:41.528Z,99145.81
2023-04-09T09:05:47.215Z,99171.25
2023-04-09T09:08:30.339Z,99172.41
2023-04-09T09:11:07.605Z,99174.63
2023-04-09T09:13:46.112Z,99171.44
2023-04-09T09:16:31.097Z,99174.25
2023-04-09T09:19:11.860Z,99187.22
2023-04-09T09:21:57.710Z,99176.28
2023-04-09T09:24:43.484Z,99183.88
2023-04-09T09:27:38.059Z,99178.63
2023-04-09T09:30:20.781Z,99171.72
2023-04-09T09:33:20.953Z,99176.97
2023-04-09T09:36:05.209Z,99177.47
2023-04-09T09:39:09.519Z,99185.56
2023-04-09T09:41:52.165Z,99192.13
2023-04-09T09:44:38.770Z,99189.41
2023-04-09T09:47:32.980Z,99179.13
2023-04-09T09:50:19.426Z,99190.22
2023-04-09T09:53:17.309Z,99189.88
2023-04-09T09:55:52.352Z,99189.19
2023-04-09T09:58:32.917Z,99184.28
2023-04-09T10:01:35.659Z,99170.50
2023-04-09T10:04:28.957Z,99172.34
2023-04-09T10:07:06.857Z,99182.53
2023-04-09T10:09:56.263Z,99165.94
2023-04-09T10:12:35.017Z,99166.47
2023-04-09T10:15:07.459Z,99163.72
2023-04-09T10:17:45.539Z,99163.78
2023-04-09T10:20:42.291Z,99161.56
2023-04-09T10:23:35.348Z,99163.44
2023-04-09T10:26:07.167Z,99139.69
2023-04-09T10:28:45.742Z,99149.03
2023-04-09T10:31:21.890Z,99157.19
2023-04-09T10:34:10.927Z,99151.84
2023-04-09T10:36:46.174Z,99151.56
2023-04-09T10:39:16.953Z,99151.63
2023-04-09T10:42:03.396Z,99160.25
2023-04-09T10:44:53.672Z,99144.06
2023-04-09T10:47:53.195Z,99155.41
2023-04-09T10:50:41.646Z,99158.03
2023-04-09T10:53:51.109Z,99161.41
2023-04-09T10:56:36.765Z,99136.94
2023-04-09T10:59:26.198Z,99147.50
2023-04-09T11:02:19.097Z,99130.31
2023-04-09T11:05:31.054Z,99138.81
2023-04-09T11:08:22.609Z,99118.00
2023-04-09T11:11:10.828Z,99136.72
2023-04-09T11:13:48.423Z,99116.19
2023-04-09T11:16:27.857Z,99122.97
2023-04-09T11:19:03.993Z,99123.41
2023-04-09T11:21:41.574Z,99144.22
2023-04-09T11:24:17.778Z,99127.25
2023-04-09T11:27:04.364Z,99112.31
2023-04-09T11:30:25.524Z,99139.09
2023-04-09T11:32:52.610Z,99136.13
2023-04-09T11:35:22.738Z,99111.31
2023-04-09T11:37:52.528Z,99140.91
2023-04-09T11:40:26.851Z,99126.44
2023-04-09T11:42:56.242Z,99140.13
2023-04-09T11:45:28.359Z,99141.97
2023-04-09T11:47:57.762Z,99123.19
2023-04-09T11:50:25.509Z,99100.38
2023-04-09T11:52:53.125Z,99123.72
2023-04-09T11:55:27.852Z,99135.03
2023-04-09T11:58:01.422Z,99141.66
2023-04-09T12:00:29.253Z,99144.47
2023-04-09T12:03:02.720Z,99130.81
2023-04-09T12:05:32.824Z,99130.75
2023-04-09T12:08:07.693Z,99132.56
2023-04-09T12:10:37.129Z,99125.94
2023-04-09T12:13:09.501Z,99133.91
2023-04-09T12:15:38.695Z,99135.63
2023-04-09T12:18:09.281Z,99131.41
2023-04-09T12:20:39.892Z,99125.19
2023-04-09T12:23:07.928Z,99128.94
2023-04-09T12:25:39.507Z,99122.38
2023-04-09T12:28:08.196Z,99134.63
2023-04-09T12:30:36.311Z,99147.84
2023-04-09T12:33:04.335Z,99133.34
2023-04-09T12:35:32.190Z,99115.09
2023-04-09T12:38:02.384Z,99126.88
2023-04-09T12:40:29.399Z,99125.94
2023-04-09T12:42:56.765Z,99128.03
2023-04-09T12:45:23.892Z,99136.72
2023-04-09T12:47:51.397Z,99147.19
2023-04-09T12:50:18.472Z,99129.50
2023-04-09T12:52:46.148Z,99125.31
2023-04-09T12:55:14.928Z,99129.59
2023-04-09T12:57:44.514Z,99110.94
2023-04-09T13:00:12.337Z,99146.84
2023-04-09T13:02:39.800Z,99139.88
2023-04-09T13:05:07.681Z,99120.72
2023-04-09T13:07:34.700Z,99129.50
2023-04-09T13:10:01.743Z,99129.94
2023-04-09T13:12:28.768Z,99124.31
2023-04-09T13:14:55.971Z,99103.03
2023-04-09T13:17:23.346Z,99129.25
2023-04-09T13:19:51.917Z,98977.16
2023-04-09T13:22:19.602Z,99134.84
2023-04-09T13:24:46.654Z,99133.81
2023-04-09T13:27:13.806Z,99138.44
2023-04-09T13:29:40.861Z,99107.50
2023-04-09T13:32:07.940Z,99115.03
2023-04-09T13:34:35.742Z,99121.63
2023-04-09T13:37:03.833Z,99106.19
2023-04-09T13:39:31.514Z,99122.09
2023-04-09T13:41:58.662Z,99125.00
2023-04-09T13:44:26.929Z,99122.25
2023-04-09T13:46:54.036Z,99119.84
2023-04-09T13:49:21.318Z,99119.06
2023-04-09T13:51:49.235Z,99114.66
2023-04-09T13:54:16.479Z,99109.25
2023-04-09T13:56:45.183Z,99111.22
2023-04-09T13:59:12.584Z,99114.63
2023-04-09T14:01:39.663Z,99103.69
2023-04-09T14:04:06.862Z,99116.31
2023-04-09T14:06:33.934Z,99103.53
2023-04-09T14:09:00.989Z,99109.03
2023-04-09T14:11:28.011Z,99109.75
2023-04-09T14:13:55.809Z,99101.38
2023-04-09T14:16:23.934Z,99110.19
2023-04-09T14:18:51.352Z,99105.53
2023-04-09T14:21:19.049Z,99104.00
2023-04-09T14:23:46.308Z,99093.56
2023-04-09T14:26:13.482Z,99082.88
2023-04-09T14:28:43.062Z,99097.34
2023-04-09T14:31:10.101Z,99105.00
2023-04-09T14:33:37.069Z,99085.50
2023-04-09T14:36:04.408Z,99084.25
2023-04-09T14:38:31.516Z,99082.56
2023-04-09T14:40:58.475Z,99089.88
2023-04-09T14:43:25.844Z,99089.34
2023-04-09T14:45:54.608Z,99071.13
2023-04-09T14:48:21.658Z,99077.06
2023-04-09T14:50:51.497Z,99079.63
2023-04-09T15:04:27.957Z,99085.69
2023-04-09T15:06:55.637Z,99080.56
2023-04-09T15:09:22.633Z,99083.31
2023-04-09T15:11:50.353Z,99082.47
2023-04-09T15:14:17.396Z,99070.09
2023-04-09T15:16:44.478Z,99061.75
2023-04-09T15:19:11.803Z,99076.63
2023-04-09T15:21:38.797Z,99077.91
2023-04-09T15:24:05.816Z,99075.03
2023-04-09T15:26:34.969Z,99087.91
2023-04-09T15:29:04.394Z,99083.78
2023-04-09T15:31:32.326Z,99084.50
2023-04-09T15:33:59.630Z,99085.19
2023-04-09T15:36:27.271Z,99092.59
2023-04-09T15:38:54.932Z,99087.53
2023-04-09T15:41:24.196Z,99085.34
2023-04-09T15:43:52.080Z,99078.53
2023-04-09T15:46:19.181Z,99058.56
2023-04-09T15:48:46.406Z,99091.75
2023-04-09T15:51:13.917Z,99096.97
2023-04-09T15:53:40.922Z,99088.44
2023-04-09T15:56:08.919Z,99065.13
2023-04-09T15:58:37.267Z,99097.75
2023-04-09T16:01:08.570Z,99105.94
2023-04-09T16:03:40.036Z,99073.81
2023-04-09T16:06:13.529Z,99104.28
2023-04-09T16:08:40.699Z,99093.56
2023-04-09T16:11:08.471Z,99105.59
2023-04-09T16:13:35.581Z,99102.25
2023-04-09T16:16:02.648Z,99116.78
2023-04-09T16:18:30.122Z,99102.69
2023-04-09T16:20:57.781Z,99108.06
2023-04-09T16:23:26.605Z,99100.38
2023-04-09T16:25:53.998Z,99109.19
2023-04-09T16:28:22.468Z,99102.66
2023-04-09T16:30:51.065Z,99112.09
2023-04-09T16:33:18.158Z,99094.16
2023-04-09T16:35:45.298Z,99117.34
2023-04-09T16:38:14.023Z,99095.72
2023-04-09T16:40:41.164Z,99110.63
2023-04-09T16:43:08.165Z,99119.41
2023-04-09T16:45:35.946Z,99102.47
2023-04-09T16:48:03.133Z,99122.28
2023-04-09T16:50:30.128Z,99087.91
2023-04-09T16:52:57.289Z,99115.94
2023-04-09T16:55:24.291Z,99122.88
2023-04-09T16:57:51.615Z,99123.13
2023-04-09T17:00:19.267Z,99079.00
2023-04-09T17:02:46.476Z,99096.97
2023-04-09T17:05:14.211Z,99119.84
2023-04-09T17:07:41.526Z,99138.09
2023-04-09T17:10:09.151Z,99140.16
2023-04-09T17:12:37.150Z,99128.44
2023-04-09T17:15:04.491Z,99118.84
2023-04-09T17:17:31.949Z,99091.63
2023-04-09T17:20:01.616Z,99082.06
2023-04-09T17:22:28.925Z,99117.53
2023-04-09T17:24:56.118Z,99119.91
2023-04-09T17:27:23.148Z,99135.88
2023-04-09T17:29:50.269Z,99137.25
2023-04-09T17:32:17.458Z,99131.22
2023-04-09T17:34:48.808Z,99143.19
2023-04-09T17:37:16.079Z,99145.41
2023-04-09T17:39:43.174Z,99120.38
2023-04-09T17:42:12.151Z,99152.03
2023-04-09T17:44:39.509Z,99154.72
2023-04-09T17:47:07.725Z,99158.44
2023-04-09T17:49:34.941Z,99162.47
2023-04-09T17:52:02.018Z,99152.41
2023-04-09T17:54:35.560Z,99165.19
2023-04-09T17:57:04.347Z,99152.91
2023-04-09T17:59:32.485Z,99175.63
2023-04-09T18:01:59.760Z,99167.38
2023-04-09T18:04:27.410Z,99163.84
2023-04-09T18:06:57.719Z,99161.31
2023-04-09T18:09:24.871Z,99181.50
2023-04-09T18:11:56.568Z,99173.78
2023-04-09T18:14:27.110Z,99179.50
2023-04-09T18:16:56.568Z,99176.47
2023-04-09T18:19:25.531Z,99187.38
2023-04-09T18:21:55.244Z,99189.09
2023-04-09T18:24:23.934Z,99190.59
2023-04-09T18:26:52.777Z,99187.88
2023-04-09T18:29:21.514Z,99199.34
2023-04-09T18:31:51.952Z,99198.31
2023-04-09T18:34:22.353Z,99184.84
2023-04-09T18:36:52.271Z,99177.63
2023-04-09T18:39:21.527Z,99207.38
2023-04-09T18:41:51.122Z,99192.22
2023-04-09T18:44:22.016Z,99199.66
2023-04-09T18:46:51.332Z,99206.19
2023-04-09T18:49:19.569Z,99208.69
2023-04-09T18:51:49.132Z,99191.88
2023-04-09T18:54:18.425Z,99172.69
2023-04-09T18:56:49.905Z,99217.91
2023-04-09T18:59:18.757Z,99216.75
2023-04-09T19:01:47.693Z,99194.31
2023-04-09T19:04:20.074Z,99209.47
2023-04-09T19:06:52.653Z,99209.97
2023-04-09T19:09:21.701Z,99207.59
2023-04-09T19:11:50.975Z,99217.50
2023-04-09T19:14:22.340Z,99214.47
2023-04-09T19:16:51.614Z,99208.94
2023-04-09T19:19:20.560Z,99215.31
2023-04-09T19:21:48.501Z,99207.41
2023-04-09T19:24:17.728Z,99199.81
2023-04-09T19:26:46.968Z,99221.88
2023-04-09T19:29:17.736Z,99216.97
2023-04-09T19:31:46.941Z,99219.44
2023-04-09T19:34:16.769Z,99217.25
2023-04-09T19:36:44.886Z,99223.66
2023-04-09T19:39:15.320Z,99228.72
2023-04-09T19:41:44.084Z,99226.34
2023-04-09T19:44:12.377Z,99226.50
2023-04-09T19:46:44.778Z,99227.19
2023-04-09T19:49:14.790Z,99219.25
2023-04-09T19:51:44.814Z,99224.31
2023-04-09T19:54:16.513Z,99231.19
2023-04-09T19:56:47.146Z,99206.00
2023-04-09T19:59:15.678Z,99222.00
2023-04-09T20:01:44.484Z,99201.59
2023-04-09T20:04:14.491Z,99227.25
2023-04-09T20:06:46.358Z,99221.66
2023-04-09T20:09:16.134Z,99215.25
2023-04-09T20:11:44.698Z,99212.09
2023-04-09T20:14:13.451Z,99217.13
2023-04-09T20:16:42.578Z,99234.34
2023-04-09T20:19:25.502Z,99220.69
2023-04-09T20:21:56.097Z,99232.47
2023-04-09T20:24:29.063Z,99221.38
2023-04-09T20:27:02.214Z,99234.47
2023-04-09T20:29:32.346Z,99224.38
2023-04-09T20:32:01.996Z,99227.75
2023-04-09T20:34:32.543Z,99239.00
2023-04-09T20:37:03.331Z,99203.84
2023-04-09T20:39:49.308Z,99230.78
2023-04-09T20:42:21.717Z,99224.56
2023-04-09T20:44:49.109Z,99224.56
2023-04-09T20:47:16.301Z,99227.25
2023-04-09T20:49:43.864Z,99232.78
2023-04-09T20:52:11.199Z,99237.16
2023-04-09T20:54:44.835Z,99229.44
2023-04-09T20:57:13.906Z,99233.13
2023-04-09T20:59:41.805Z,99232.94
2023-04-09T21:02:09.048Z,99236.47
2023-04-09T21:04:36.360Z,99226.41
2023-04-09T21:07:04.023Z,99223.00
2023-04-09T21:09:31.764Z,99233.44
2023-04-09T21:11:59.132Z,99228.06
2023-04-09T21:14:26.362Z,99237.81
2023-04-09T21:16:53.326Z,99237.66
2023-04-09T21:19:21.136Z,99234.81
2023-04-09T21:21:48.915Z,99238.00
2023-04-09T21:24:17.022Z,99233.31
2023-04-09T21:26:50.239Z,99243.91
2023-04-09T21:29:20.027Z,99235.69
2023-04-09T21:31:47.802Z,99241.22
2023-04-09T21:34:14.733Z,99239.72
2023-04-09T21:36:42.462Z,99233.44
2023-04-09T21:39:09.399Z,99243.00
2023-04-09T21:41:36.817Z,99240.13
2023-04-09T21:44:08.796Z,99236.78
2023-04-09T21:46:41.021Z,99207.69
2023-04-09T21:49:08.297Z,99243.66
2023-04-09T21:51:36.297Z,99249.53
2023-04-09T21:54:09.279Z,99235.06
2023-04-09T21:56:37.304Z,99235.25
2023-04-09T21:59:05.459Z,99251.91
2023-04-09T22:01:34.779Z,99223.97
2023-04-09T22:04:02.422Z,99240.69
2023-04-09T22:06:30.053Z,99236.97
2023-04-09T22:08:58.660Z,99238.50
2023-04-09T22:11:28.134Z,99245.72
2023-04-09T22:13:58.602Z,99240.69
2023-04-09T22:16:26.471Z,99240.69
2023-04-09T22:18:54.859Z,99241.50
2023-04-09T22:21:24.389Z,99249.88
2023-04-09T22:23:51.309Z,99248.19
2023-04-09T22:26:18.359Z,99251.22
2023-04-09T22:28:45.573Z,99243.31
2023-04-09T22:31:12.855Z,99245.16
2023-04-09T22:33:39.861Z,99239.78
2023-04-09T22:36:07.380Z,99248.00
2023-04-09T22:38:34.838Z,99241.78
2023-04-09T22:41:01.955Z,99237.91
2023-04-09T22:43:28.870Z,99254.53
2023-04-09T22:45:57.449Z,99254.88
2023-04-09T22:48:24.379Z,99256.84
2023-04-09T22:50:51.381Z,99254.50
2023-04-09T22:53:19.574Z,99243.94
2023-04-09T22:55:54.699Z,99250.31
2023-04-09T22:58:21.702Z,99248.47
2023-04-09T23:00:49.881Z,99253.00
2023-04-09T23:03:17.591Z,99258.34
2023-04-09T23:05:45.588Z,99248.09
2023-04-09T23:08:13.168Z,99257.28
2023-04-09T23:10:40.076Z,99247.72
2023-04-09T23:13:07.035Z,99246.97
2023-04-09T23:15:34.615Z,99207.56
2023-04-09T23:18:01.554Z,99222.41
2023-04-09T23:20:29.659Z,99235.56
2023-04-09T23:22:56.584Z,99254.56
2023-04-09T23:25:23.500Z,99250.75
2023-04-09T23:27:50.536Z,99245.19
2023-04-09T23:30:18.329Z,99244.34
2023-04-09T23:32:45.661Z,99241.34
2023-04-09T23:35:12.772Z,99178.03
2023-04-09T23:37:41.335Z,99235.97
2023-04-09T23:40:08.906Z,99232.97
2023-04-09T23:42:36.128Z,99230.97
2023-04-09T23:45:04.658Z,99225.59
2023-04-09T23:47:33.863Z,99227.97
2023-04-09T23:50:05.132Z,99224.44
2023-04-09T23:52:37.376Z,99216.16
2023-04-09T23:55:10.910Z,99220.84
2023-04-09T23:57:39.800Z,99210.25
